Search for airport 
image banner adimage banner adimage banner ad
image banner ad

CL48 - Palomar Health Downtown Campus

Located in Escondido, United States

ICAO - CL48, IATA -

Data provided by Airmate  

General information

Coordinates: N33°7'28" W117°4'32"
Elevation is 715 feet MSL.
 
View others Airports in California

Operational data

Special qualification required
Current time UTC:
Current local time:
Weather at : KRNM - Ramona ( 18 km )
METAR: KRNM 221253Z AUTO 26004KT 3SM BR OVC002 15/14 A2994 RMK AO2 SLP123 T01500144
View NOTAMs / SUP AIP / TFR affecting this airport [VIEW]
Communications frequencies: [VIEW]

Runways:

Airport contact information

Address: Escondido United States

Satellite view of CL48